Portada
METAR-TAF:

METAR-TAF

Aeroports :

Harrisburg, Pennsilvània, Estats Units d'Amèrica

latitud: 40-13-02N, longitud: 076-51-05W, altitud: 106 m

Observació

L'informe es va fer fa 59 minuts, a les 16:56 UTC
Vent 3 kt amb direcció variable
Temperatura 23°C
Humitat 44%
Pressió 1023 hPa
Visibilitat: 16.1 km
Cel ennuvolat a una alçada de 5000 ft
Cel cobert a una alçada de 7000 ft

METAR: KCXY 241656Z VRB03KT 10SM BKN050 OVC070 23/10 A3020 RMK AO2 SLP225 T02330100

Hora: 13:55 (17:55 UTC)


TAF: manca

Observacions i pronòstics meteorològics de més de 4000 aeroports (METAR i TAF).

Les estacions disponibles són els punts grocs i vermells al mapa.

Posi el ratolí al punt desitjat per veure el nom de l'estació.

Feu clic per veure les observacions i els pronòstics meteorològics.

Per canviar el mapa: feu clic els botons verds amb una creu de color negre per apropar; al botó verd amb un guió per allunyar la imatge; o en les fletxes verdes per a mapes adjacents.


METAR-TAF: